Hudsonville, Indiana
Current Conditions -  °F | °C
As of 11:35 AM on Wednesday 26 Nov 2014 (Local Time) from KDCY Reporting Station
Scattered Clouds Scattered Clouds  
Wind Chill: 31°   Ceiling: Unl
Heat Index: 35°   Visibility: 10mi
Dew Point: 28°   Wind: 5mph
Humidity: 76%   Direction: 140°SE
Pressure: 30.1"   Gusts: NA
Location:  38.6251°N, 87.0452°W
Report Text: KDCY 261735Z AUTO 14004KT 10SM SCT017 02/M02 A3010 RMK AO2 T00171022
Loading
Personal Weather Stations






























Interactive Weather Map New forecast layout! Learn more

10-Day Weather Forecast

Advertisements
Track Severe Weather on mobile